sensor_id;sensor_type;location;lat;lon;timestamp;temperature;humidity
13944;DHT22;7044;53.286;8.534;2023-05-07T00:00:43;11.00;99.90
13944;DHT22;7044;53.286;8.534;2023-05-07T00:03:11;11.00;99.90
13944;DHT22;7044;53.286;8.534;2023-05-07T00:05:39;11.10;99.90
13944;DHT22;7044;53.286;8.534;2023-05-07T00:08:06;11.20;99.90
13944;DHT22;7044;53.286;8.534;2023-05-07T00:10:33;11.10;99.90
13944;DHT22;7044;53.286;8.534;2023-05-07T00:13:00;11.20;99.90
13944;DHT22;7044;53.286;8.534;2023-05-07T00:15:27;11.10;99.90
13944;DHT22;7044;53.286;8.534;2023-05-07T00:17:55;11.10;99.90
13944;DHT22;7044;53.286;8.534;2023-05-07T00:20:24;11.00;99.90
13944;DHT22;7044;53.286;8.534;2023-05-07T00:22:51;11.10;99.90
13944;DHT22;7044;53.286;8.534;2023-05-07T00:25:19;11.00;99.90
13944;DHT22;7044;53.286;8.534;2023-05-07T00:27:46;11.00;99.90
13944;DHT22;7044;53.286;8.534;2023-05-07T00:30:13;11.00;99.90
13944;DHT22;7044;53.286;8.534;2023-05-07T00:32:40;11.00;99.90
13944;DHT22;7044;53.286;8.534;2023-05-07T00:35:08;11.00;99.90
13944;DHT22;7044;53.286;8.534;2023-05-07T00:37:36;10.90;99.90
13944;DHT22;7044;53.286;8.534;2023-05-07T00:40:03;10.90;99.90
13944;DHT22;7044;53.286;8.534;2023-05-07T00:42:32;10.90;99.90
13944;DHT22;7044;53.286;8.534;2023-05-07T00:44:59;10.80;99.90
13944;DHT22;7044;53.286;8.534;2023-05-07T00:47:26;10.80;99.90
13944;DHT22;7044;53.286;8.534;2023-05-07T00:49:53;10.80;99.90
13944;DHT22;7044;53.286;8.534;2023-05-07T00:52:20;10.80;99.90
13944;DHT22;7044;53.286;8.534;2023-05-07T00:54:49;10.80;99.90
13944;DHT22;7044;53.286;8.534;2023-05-07T00:57:16;10.80;99.90
13944;DHT22;7044;53.286;8.534;2023-05-07T00:59:43;10.80;99.90
13944;DHT22;7044;53.286;8.534;2023-05-07T01:02:10;10.80;99.90
13944;DHT22;7044;53.286;8.534;2023-05-07T01:04:37;10.70;99.90
13944;DHT22;7044;53.286;8.534;2023-05-07T01:07:04;10.70;99.90
13944;DHT22;7044;53.286;8.534;2023-05-07T01:09:31;10.70;99.90
13944;DHT22;7044;53.286;8.534;2023-05-07T01:12:02;10.70;99.90
13944;DHT22;7044;53.286;8.534;2023-05-07T01:14:29;10.70;99.90
13944;DHT22;7044;53.286;8.534;2023-05-07T01:16:58;10.70;99.90
13944;DHT22;7044;53.286;8.534;2023-05-07T01:19:25;10.60;99.90
13944;DHT22;7044;53.286;8.534;2023-05-07T01:21:58;10.60;99.90
13944;DHT22;7044;53.286;8.534;2023-05-07T01:24:29;10.60;99.90
13944;DHT22;7044;53.286;8.534;2023-05-07T01:26:56;10.60;99.90
13944;DHT22;7044;53.286;8.534;2023-05-07T01:29:23;10.60;99.90
13944;DHT22;7044;53.286;8.534;2023-05-07T01:31:51;10.50;99.90
13944;DHT22;7044;53.286;8.534;2023-05-07T01:34:20;10.50;99.90
13944;DHT22;7044;53.286;8.534;2023-05-07T01:36:48;10.50;99.90
13944;DHT22;7044;53.286;8.534;2023-05-07T01:39:15;10.50;99.90
13944;DHT22;7044;53.286;8.534;2023-05-07T01:41:44;10.40;99.90
13944;DHT22;7044;53.286;8.534;2023-05-07T01:44:12;10.50;99.90
13944;DHT22;7044;53.286;8.534;2023-05-07T01:46:40;10.40;99.90
13944;DHT22;7044;53.286;8.534;2023-05-07T01:49:07;10.40;99.90
13944;DHT22;7044;53.286;8.534;2023-05-07T01:51:34;10.40;99.90
13944;DHT22;7044;53.286;8.534;2023-05-07T01:54:01;10.40;99.90
13944;DHT22;7044;53.286;8.534;2023-05-07T01:56:28;10.40;99.90
13944;DHT22;7044;53.286;8.534;2023-05-07T01:58:56;10.40;99.90
13944;DHT22;7044;53.286;8.534;2023-05-07T02:01:23;10.30;99.90
13944;DHT22;7044;53.286;8.534;2023-05-07T02:03:49;10.30;99.90
13944;DHT22;7044;53.286;8.534;2023-05-07T02:06:16;10.30;99.90
13944;DHT22;7044;53.286;8.534;2023-05-07T02:08:43;10.30;99.90
13944;DHT22;7044;53.286;8.534;2023-05-07T02:11:10;10.30;99.90
13944;DHT22;7044;53.286;8.534;2023-05-07T02:13:36;10.30;99.90
13944;DHT22;7044;53.286;8.534;2023-05-07T02:16:05;10.30;99.90
13944;DHT22;7044;53.286;8.534;2023-05-07T02:18:32;10.30;99.90
13944;DHT22;7044;53.286;8.534;2023-05-07T02:20:59;10.30;99.90
13944;DHT22;7044;53.286;8.534;2023-05-07T02:23:26;10.30;99.90
13944;DHT22;7044;53.286;8.534;2023-05-07T02:25:52;10.30;99.90
13944;DHT22;7044;53.286;8.534;2023-05-07T02:28:19;10.30;99.90
13944;DHT22;7044;53.286;8.534;2023-05-07T02:30:46;10.20;99.90
13944;DHT22;7044;53.286;8.534;2023-05-07T02:33:14;10.20;99.90
13944;DHT22;7044;53.286;8.534;2023-05-07T02:35:41;10.20;99.90
13944;DHT22;7044;53.286;8.534;2023-05-07T02:38:07;10.20;99.90
13944;DHT22;7044;53.286;8.534;2023-05-07T02:40:36;10.10;99.90
13944;DHT22;7044;53.286;8.534;2023-05-07T02:43:04;10.20;99.90
13944;DHT22;7044;53.286;8.534;2023-05-07T02:45:31;10.20;99.90
13944;DHT22;7044;53.286;8.534;2023-05-07T02:47:58;10.20;99.90
13944;DHT22;7044;53.286;8.534;2023-05-07T02:50:26;10.20;99.90
13944;DHT22;7044;53.286;8.534;2023-05-07T02:52:53;10.20;99.90
13944;DHT22;7044;53.286;8.534;2023-05-07T02:55:20;10.20;99.90
13944;DHT22;7044;53.286;8.534;2023-05-07T02:57:46;10.10;99.90
13944;DHT22;7044;53.286;8.534;2023-05-07T03:00:15;10.10;99.90
13944;DHT22;7044;53.286;8.534;2023-05-07T03:02:43;10.10;99.90
13944;DHT22;7044;53.286;8.534;2023-05-07T03:05:10;10.10;99.90
13944;DHT22;7044;53.286;8.534;2023-05-07T03:07:38;10.10;99.90
13944;DHT22;7044;53.286;8.534;2023-05-07T03:10:07;10.10;99.90
13944;DHT22;7044;53.286;8.534;2023-05-07T03:12:34;10.00;99.90
13944;DHT22;7044;53.286;8.534;2023-05-07T03:15:01;10.10;99.90
13944;DHT22;7044;53.286;8.534;2023-05-07T03:17:28;10.00;99.90
13944;DHT22;7044;53.286;8.534;2023-05-07T03:19:54;10.00;99.90
13944;DHT22;7044;53.286;8.534;2023-05-07T03:22:21;10.00;99.90
13944;DHT22;7044;53.286;8.534;2023-05-07T03:24:49;10.00;99.90
13944;DHT22;7044;53.286;8.534;2023-05-07T03:27:16;10.00;99.90
13944;DHT22;7044;53.286;8.534;2023-05-07T03:29:43;10.00;99.90
13944;DHT22;7044;53.286;8.534;2023-05-07T03:32:10;10.00;99.90
13944;DHT22;7044;53.286;8.534;2023-05-07T03:34:36;10.00;99.90
13944;DHT22;7044;53.286;8.534;2023-05-07T03:37:03;10.00;99.90
13944;DHT22;7044;53.286;8.534;2023-05-07T03:39:30;10.00;99.90
13944;DHT22;7044;53.286;8.534;2023-05-07T03:41:58;10.00;99.90
13944;DHT22;7044;53.286;8.534;2023-05-07T03:44:26;10.00;99.90
13944;DHT22;7044;53.286;8.534;2023-05-07T03:46:53;10.00;99.90
13944;DHT22;7044;53.286;8.534;2023-05-07T03:49:20;10.00;99.90
13944;DHT22;7044;53.286;8.534;2023-05-07T03:51:47;9.90;99.90
13944;DHT22;7044;53.286;8.534;2023-05-07T03:54:14;9.90;99.90
13944;DHT22;7044;53.286;8.534;2023-05-07T03:56:41;10.00;99.90
13944;DHT22;7044;53.286;8.534;2023-05-07T03:59:09;10.00;99.90
13944;DHT22;7044;53.286;8.534;2023-05-07T04:01:35;9.90;99.90
13944;DHT22;7044;53.286;8.534;2023-05-07T04:04:02;10.00;99.90
13944;DHT22;7044;53.286;8.534;2023-05-07T04:06:29;10.00;99.90
13944;DHT22;7044;53.286;8.534;2023-05-07T04:08:56;10.00;99.90
13944;DHT22;7044;53.286;8.534;2023-05-07T04:11:23;10.00;99.90
13944;DHT22;7044;53.286;8.534;2023-05-07T04:13:50;10.00;99.90
13944;DHT22;7044;53.286;8.534;2023-05-07T04:16:18;9.90;99.90
13944;DHT22;7044;53.286;8.534;2023-05-07T04:18:45;9.90;99.90
13944;DHT22;7044;53.286;8.534;2023-05-07T04:21:15;9.90;99.90
13944;DHT22;7044;53.286;8.534;2023-05-07T04:23:42;9.90;99.90
13944;DHT22;7044;53.286;8.534;2023-05-07T04:26:09;9.90;99.90
13944;DHT22;7044;53.286;8.534;2023-05-07T04:28:36;9.90;99.90
13944;DHT22;7044;53.286;8.534;2023-05-07T04:31:02;9.90;99.90
13944;DHT22;7044;53.286;8.534;2023-05-07T04:33:31;9.90;99.90
13944;DHT22;7044;53.286;8.534;2023-05-07T04:35:58;9.90;99.90
13944;DHT22;7044;53.286;8.534;2023-05-07T04:38:28;9.90;99.90
13944;DHT22;7044;53.286;8.534;2023-05-07T04:40:55;9.90;99.90
13944;DHT22;7044;53.286;8.534;2023-05-07T04:43:22;9.90;99.90
13944;DHT22;7044;53.286;8.534;2023-05-07T04:45:50;9.90;99.90
13944;DHT22;7044;53.286;8.534;2023-05-07T04:48:16;9.90;99.90
13944;DHT22;7044;53.286;8.534;2023-05-07T04:50:47;9.90;99.90
13944;DHT22;7044;53.286;8.534;2023-05-07T04:53:14;9.90;99.90
13944;DHT22;7044;53.286;8.534;2023-05-07T04:55:41;9.90;99.90
13944;DHT22;7044;53.286;8.534;2023-05-07T04:58:08;9.80;99.90
13944;DHT22;7044;53.286;8.534;2023-05-07T05:00:35;9.90;99.90
13944;DHT22;7044;53.286;8.534;2023-05-07T05:03:01;9.90;99.90
13944;DHT22;7044;53.286;8.534;2023-05-07T05:05:28;10.00;99.90
13944;DHT22;7044;53.286;8.534;2023-05-07T05:07:56;10.00;99.90
13944;DHT22;7044;53.286;8.534;2023-05-07T05:10:23;10.00;99.90
13944;DHT22;7044;53.286;8.534;2023-05-07T05:12:50;10.00;99.90
13944;DHT22;7044;53.286;8.534;2023-05-07T05:15:17;10.00;99.90
13944;DHT22;7044;53.286;8.534;2023-05-07T05:17:44;10.00;99.90
13944;DHT22;7044;53.286;8.534;2023-05-07T05:20:10;9.90;99.90
13944;DHT22;7044;53.286;8.534;2023-05-07T05:22:37;10.00;99.90
13944;DHT22;7044;53.286;8.534;2023-05-07T05:25:06;10.00;99.90
13944;DHT22;7044;53.286;8.534;2023-05-07T05:27:34;10.00;99.90
13944;DHT22;7044;53.286;8.534;2023-05-07T05:30:01;10.10;99.90
13944;DHT22;7044;53.286;8.534;2023-05-07T05:32:28;10.10;99.90
13944;DHT22;7044;53.286;8.534;2023-05-07T05:34:54;10.10;99.90
13944;DHT22;7044;53.286;8.534;2023-05-07T05:37:21;10.10;99.90
13944;DHT22;7044;53.286;8.534;2023-05-07T05:39:48;10.10;99.90
13944;DHT22;7044;53.286;8.534;2023-05-07T05:42:16;10.10;99.90
13944;DHT22;7044;53.286;8.534;2023-05-07T05:44:43;10.10;99.90
13944;DHT22;7044;53.286;8.534;2023-05-07T05:47:10;10.10;99.90
13944;DHT22;7044;53.286;8.534;2023-05-07T05:49:37;10.10;99.90
13944;DHT22;7044;53.286;8.534;2023-05-07T05:52:04;10.10;99.90
13944;DHT22;7044;53.286;8.534;2023-05-07T05:54:30;10.10;99.90
13944;DHT22;7044;53.286;8.534;2023-05-07T05:56:57;10.20;99.90
13944;DHT22;7044;53.286;8.534;2023-05-07T05:59:25;10.20;99.90
13944;DHT22;7044;53.286;8.534;2023-05-07T06:01:52;10.20;99.90
13944;DHT22;7044;53.286;8.534;2023-05-07T06:04:19;10.20;99.90
13944;DHT22;7044;53.286;8.534;2023-05-07T06:06:46;10.20;99.90
13944;DHT22;7044;53.286;8.534;2023-05-07T06:09:13;10.20;99.90
13944;DHT22;7044;53.286;8.534;2023-05-07T06:11:40;10.20;99.90
13944;DHT22;7044;53.286;8.534;2023-05-07T06:14:07;10.30;99.90
13944;DHT22;7044;53.286;8.534;2023-05-07T06:16:35;10.30;99.90
13944;DHT22;7044;53.286;8.534;2023-05-07T06:19:04;10.30;99.90
13944;DHT22;7044;53.286;8.534;2023-05-07T06:21:31;10.40;99.90
13944;DHT22;7044;53.286;8.534;2023-05-07T06:23:58;10.40;99.90
13944;DHT22;7044;53.286;8.534;2023-05-07T06:26:24;10.40;99.90
13944;DHT22;7044;53.286;8.534;2023-05-07T06:28:51;10.40;99.90
13944;DHT22;7044;53.286;8.534;2023-05-07T06:31:19;10.40;99.90
13944;DHT22;7044;53.286;8.534;2023-05-07T06:33:48;10.40;99.90
13944;DHT22;7044;53.286;8.534;2023-05-07T06:36:16;10.40;99.90
13944;DHT22;7044;53.286;8.534;2023-05-07T06:38:42;10.40;99.90
13944;DHT22;7044;53.286;8.534;2023-05-07T06:41:09;10.40;99.90
13944;DHT22;7044;53.286;8.534;2023-05-07T06:43:36;10.50;99.90
13944;DHT22;7044;53.286;8.534;2023-05-07T06:46:03;10.50;99.90
13944;DHT22;7044;53.286;8.534;2023-05-07T06:48:30;10.50;99.90
13944;DHT22;7044;53.286;8.534;2023-05-07T06:50:58;10.60;99.90
13944;DHT22;7044;53.286;8.534;2023-05-07T06:53:25;10.60;99.90
13944;DHT22;7044;53.286;8.534;2023-05-07T06:55:53;10.60;99.90
13944;DHT22;7044;53.286;8.534;2023-05-07T06:58:20;10.60;99.90
13944;DHT22;7044;53.286;8.534;2023-05-07T07:00:47;10.60;99.90
13944;DHT22;7044;53.286;8.534;2023-05-07T07:03:14;10.80;99.90
13944;DHT22;7044;53.286;8.534;2023-05-07T07:05:41;10.60;99.90
13944;DHT22;7044;53.286;8.534;2023-05-07T07:08:10;10.60;99.90
13944;DHT22;7044;53.286;8.534;2023-05-07T07:10:37;10.60;99.90
13944;DHT22;7044;53.286;8.534;2023-05-07T07:13:03;10.60;99.90
13944;DHT22;7044;53.286;8.534;2023-05-07T07:15:30;10.70;99.90
13944;DHT22;7044;53.286;8.534;2023-05-07T07:17:57;10.70;99.90
13944;DHT22;7044;53.286;8.534;2023-05-07T07:20:24;10.70;99.90
13944;DHT22;7044;53.286;8.534;2023-05-07T07:22:51;10.80;99.90
13944;DHT22;7044;53.286;8.534;2023-05-07T07:25:19;10.80;99.90
13944;DHT22;7044;53.286;8.534;2023-05-07T07:27:46;10.70;99.90
13944;DHT22;7044;53.286;8.534;2023-05-07T07:30:13;10.80;99.90
13944;DHT22;7044;53.286;8.534;2023-05-07T07:32:40;10.80;99.90
13944;DHT22;7044;53.286;8.534;2023-05-07T07:35:07;10.70;99.90
13944;DHT22;7044;53.286;8.534;2023-05-07T07:37:34;10.70;99.90
13944;DHT22;7044;53.286;8.534;2023-05-07T07:40:01;10.70;99.90
13944;DHT22;7044;53.286;8.534;2023-05-07T07:42:30;10.70;99.90
13944;DHT22;7044;53.286;8.534;2023-05-07T07:44:57;10.70;99.90
13944;DHT22;7044;53.286;8.534;2023-05-07T07:47:23;10.80;99.90
13944;DHT22;7044;53.286;8.534;2023-05-07T07:49:50;10.80;99.90
13944;DHT22;7044;53.286;8.534;2023-05-07T07:52:18;10.90;99.90
13944;DHT22;7044;53.286;8.534;2023-05-07T07:54:45;10.90;99.90
13944;DHT22;7044;53.286;8.534;2023-05-07T07:57:12;10.90;99.90
13944;DHT22;7044;53.286;8.534;2023-05-07T07:59:40;11.10;99.90
13944;DHT22;7044;53.286;8.534;2023-05-07T08:02:08;11.10;99.90
13944;DHT22;7044;53.286;8.534;2023-05-07T08:04:35;11.10;99.90
13944;DHT22;7044;53.286;8.534;2023-05-07T08:07:03;11.10;99.90
13944;DHT22;7044;53.286;8.534;2023-05-07T08:09:29;11.10;99.90
13944;DHT22;7044;53.286;8.534;2023-05-07T08:11:56;11.10;99.90
13944;DHT22;7044;53.286;8.534;2023-05-07T08:14:23;11.10;99.90
13944;DHT22;7044;53.286;8.534;2023-05-07T08:16:51;11.10;99.90
13944;DHT22;7044;53.286;8.534;2023-05-07T08:19:18;11.20;99.90
13944;DHT22;7044;53.286;8.534;2023-05-07T08:21:45;11.10;99.90
13944;DHT22;7044;53.286;8.534;2023-05-07T08:24:13;11.10;99.90
13944;DHT22;7044;53.286;8.534;2023-05-07T08:26:40;11.20;99.90
13944;DHT22;7044;53.286;8.534;2023-05-07T08:29:07;11.20;99.90
13944;DHT22;7044;53.286;8.534;2023-05-07T08:31:34;11.20;99.90
13944;DHT22;7044;53.286;8.534;2023-05-07T08:34:03;11.20;99.90
13944;DHT22;7044;53.286;8.534;2023-05-07T08:36:30;11.20;99.90
13944;DHT22;7044;53.286;8.534;2023-05-07T08:38:56;11.30;99.90
13944;DHT22;7044;53.286;8.534;2023-05-07T08:41:23;11.30;99.90
13944;DHT22;7044;53.286;8.534;2023-05-07T08:43:51;11.40;99.90
13944;DHT22;7044;53.286;8.534;2023-05-07T08:46:18;11.40;99.90
13944;DHT22;7044;53.286;8.534;2023-05-07T08:48:48;11.40;99.90
13944;DHT22;7044;53.286;8.534;2023-05-07T08:51:18;11.50;99.90
13944;DHT22;7044;53.286;8.534;2023-05-07T08:53:46;11.40;99.90
13944;DHT22;7044;53.286;8.534;2023-05-07T08:56:14;11.50;99.90
13944;DHT22;7044;53.286;8.534;2023-05-07T08:58:41;11.50;99.90
13944;DHT22;7044;53.286;8.534;2023-05-07T09:01:10;11.50;99.90
13944;DHT22;7044;53.286;8.534;2023-05-07T09:03:39;11.50;99.90
13944;DHT22;7044;53.286;8.534;2023-05-07T09:06:06;11.60;99.90
13944;DHT22;7044;53.286;8.534;2023-05-07T09:08:35;11.60;99.90
13944;DHT22;7044;53.286;8.534;2023-05-07T09:11:02;11.90;99.90
13944;DHT22;7044;53.286;8.534;2023-05-07T09:13:29;11.80;99.90
13944;DHT22;7044;53.286;8.534;2023-05-07T09:15:56;11.80;99.90
13944;DHT22;7044;53.286;8.534;2023-05-07T09:18:24;11.80;99.90
13944;DHT22;7044;53.286;8.534;2023-05-07T09:20:50;11.70;99.90
13944;DHT22;7044;53.286;8.534;2023-05-07T09:23:17;11.80;99.90
13944;DHT22;7044;53.286;8.534;2023-05-07T09:25:45;11.80;99.90
13944;DHT22;7044;53.286;8.534;2023-05-07T09:28:12;11.80;99.90
13944;DHT22;7044;53.286;8.534;2023-05-07T09:30:39;11.80;99.90
13944;DHT22;7044;53.286;8.534;2023-05-07T09:33:06;11.90;99.90
13944;DHT22;7044;53.286;8.534;2023-05-07T09:35:33;11.90;99.90
13944;DHT22;7044;53.286;8.534;2023-05-07T09:38:00;11.90;99.90
13944;DHT22;7044;53.286;8.534;2023-05-07T09:40:29;11.90;99.90
13944;DHT22;7044;53.286;8.534;2023-05-07T09:43:08;11.90;99.90
13944;DHT22;7044;53.286;8.534;2023-05-07T09:45:36;12.00;99.90
13944;DHT22;7044;53.286;8.534;2023-05-07T09:48:05;11.90;99.90
13944;DHT22;7044;53.286;8.534;2023-05-07T09:50:36;12.00;99.90
13944;DHT22;7044;53.286;8.534;2023-05-07T09:53:04;12.00;99.90
13944;DHT22;7044;53.286;8.534;2023-05-07T09:55:31;12.00;99.90
13944;DHT22;7044;53.286;8.534;2023-05-07T09:57:59;12.10;99.90
13944;DHT22;7044;53.286;8.534;2023-05-07T10:00:29;12.10;99.90
13944;DHT22;7044;53.286;8.534;2023-05-07T10:02:57;12.10;99.90
13944;DHT22;7044;53.286;8.534;2023-05-07T10:05:25;12.10;99.90
13944;DHT22;7044;53.286;8.534;2023-05-07T10:07:53;12.10;99.90
13944;DHT22;7044;53.286;8.534;2023-05-07T10:10:21;12.10;99.90
13944;DHT22;7044;53.286;8.534;2023-05-07T10:12:49;12.10;99.90
13944;DHT22;7044;53.286;8.534;2023-05-07T10:15:18;12.20;99.90
13944;DHT22;7044;53.286;8.534;2023-05-07T10:17:46;12.20;99.90
13944;DHT22;7044;53.286;8.534;2023-05-07T10:20:15;12.20;99.90
13944;DHT22;7044;53.286;8.534;2023-05-07T10:22:43;12.30;99.90
13944;DHT22;7044;53.286;8.534;2023-05-07T10:25:14;12.30;99.90
13944;DHT22;7044;53.286;8.534;2023-05-07T10:27:43;12.30;99.90
13944;DHT22;7044;53.286;8.534;2023-05-07T10:30:20;12.30;99.90
13944;DHT22;7044;53.286;8.534;2023-05-07T10:32:49;12.30;99.90
13944;DHT22;7044;53.286;8.534;2023-05-07T10:35:19;12.40;99.90
13944;DHT22;7044;53.286;8.534;2023-05-07T10:37:46;12.40;99.90
13944;DHT22;7044;53.286;8.534;2023-05-07T10:40:14;12.50;99.90
13944;DHT22;7044;53.286;8.534;2023-05-07T10:42:54;12.50;99.90
13944;DHT22;7044;53.286;8.534;2023-05-07T10:45:23;12.50;99.90
13944;DHT22;7044;53.286;8.534;2023-05-07T10:48:11;12.60;99.90
13944;DHT22;7044;53.286;8.534;2023-05-07T10:50:39;12.60;99.90
13944;DHT22;7044;53.286;8.534;2023-05-07T10:53:23;12.60;99.90
13944;DHT22;7044;53.286;8.534;2023-05-07T10:56:24;12.80;99.90
13944;DHT22;7044;53.286;8.534;2023-05-07T10:58:51;12.90;99.90
13944;DHT22;7044;53.286;8.534;2023-05-07T11:01:50;13.00;99.90
13944;DHT22;7044;53.286;8.534;2023-05-07T11:04:18;13.10;99.90
13944;DHT22;7044;53.286;8.534;2023-05-07T11:07:24;13.20;99.90
13944;DHT22;7044;53.286;8.534;2023-05-07T11:10:04;13.30;99.90
13944;DHT22;7044;53.286;8.534;2023-05-07T11:12:51;13.30;99.90
13944;DHT22;7044;53.286;8.534;2023-05-07T11:15:37;13.30;99.90
13944;DHT22;7044;53.286;8.534;2023-05-07T11:18:06;13.50;99.90
13944;DHT22;7044;53.286;8.534;2023-05-07T11:20:53;13.70;99.90
13944;DHT22;7044;53.286;8.534;2023-05-07T11:23:55;13.80;99.90
13944;DHT22;7044;53.286;8.534;2023-05-07T11:26:22;13.80;99.90
13944;DHT22;7044;53.286;8.534;2023-05-07T11:28:49;13.80;99.90
13944;DHT22;7044;53.286;8.534;2023-05-07T11:31:21;13.90;99.90
13944;DHT22;7044;53.286;8.534;2023-05-07T11:33:49;14.00;99.90
13944;DHT22;7044;53.286;8.534;2023-05-07T11:36:17;13.90;99.90
13944;DHT22;7044;53.286;8.534;2023-05-07T11:38:45;13.90;99.90
13944;DHT22;7044;53.286;8.534;2023-05-07T11:41:12;13.90;99.90
13944;DHT22;7044;53.286;8.534;2023-05-07T11:43:56;13.90;99.90
13944;DHT22;7044;53.286;8.534;2023-05-07T11:46:23;13.90;99.90
13944;DHT22;7044;53.286;8.534;2023-05-07T11:48:52;13.90;99.90
13944;DHT22;7044;53.286;8.534;2023-05-07T11:51:19;13.90;99.90
13944;DHT22;7044;53.286;8.534;2023-05-07T11:53:46;14.00;99.90
13944;DHT22;7044;53.286;8.534;2023-05-07T11:56:15;13.90;99.90
13944;DHT22;7044;53.286;8.534;2023-05-07T11:58:43;14.00;99.90
13944;DHT22;7044;53.286;8.534;2023-05-07T12:01:11;14.00;99.90
13944;DHT22;7044;53.286;8.534;2023-05-07T12:03:40;14.00;99.90
13944;DHT22;7044;53.286;8.534;2023-05-07T12:06:10;14.00;99.90
13944;DHT22;7044;53.286;8.534;2023-05-07T12:08:38;14.10;99.90
13944;DHT22;7044;53.286;8.534;2023-05-07T12:11:08;14.20;99.90
13944;DHT22;7044;53.286;8.534;2023-05-07T12:13:37;14.20;99.90
13944;DHT22;7044;53.286;8.534;2023-05-07T12:16:05;14.30;99.90
13944;DHT22;7044;53.286;8.534;2023-05-07T12:18:33;14.30;99.90
13944;DHT22;7044;53.286;8.534;2023-05-07T12:21:01;14.30;99.90
13944;DHT22;7044;53.286;8.534;2023-05-07T12:23:30;14.30;99.90
13944;DHT22;7044;53.286;8.534;2023-05-07T12:25:57;14.30;99.90
13944;DHT22;7044;53.286;8.534;2023-05-07T12:28:23;14.30;99.90
13944;DHT22;7044;53.286;8.534;2023-05-07T12:30:50;14.30;99.90
13944;DHT22;7044;53.286;8.534;2023-05-07T12:33:18;14.20;99.90
13944;DHT22;7044;53.286;8.534;2023-05-07T12:35:47;14.20;99.90
13944;DHT22;7044;53.286;8.534;2023-05-07T12:38:15;14.20;99.90
13944;DHT22;7044;53.286;8.534;2023-05-07T12:40:44;14.20;99.90
13944;DHT22;7044;53.286;8.534;2023-05-07T12:43:16;14.20;99.90
13944;DHT22;7044;53.286;8.534;2023-05-07T12:45:44;14.20;99.90
13944;DHT22;7044;53.286;8.534;2023-05-07T12:48:11;14.20;99.90
13944;DHT22;7044;53.286;8.534;2023-05-07T12:50:38;14.20;99.90
13944;DHT22;7044;53.286;8.534;2023-05-07T12:53:06;14.20;99.90
13944;DHT22;7044;53.286;8.534;2023-05-07T12:55:41;14.20;99.90
13944;DHT22;7044;53.286;8.534;2023-05-07T12:58:15;14.20;99.90
13944;DHT22;7044;53.286;8.534;2023-05-07T13:00:42;14.10;99.90
13944;DHT22;7044;53.286;8.534;2023-05-07T13:03:09;14.20;99.90
13944;DHT22;7044;53.286;8.534;2023-05-07T13:05:36;14.20;99.90
13944;DHT22;7044;53.286;8.534;2023-05-07T13:08:03;14.20;99.90
13944;DHT22;7044;53.286;8.534;2023-05-07T13:10:30;14.20;99.90
13944;DHT22;7044;53.286;8.534;2023-05-07T13:12:58;14.20;99.90
13944;DHT22;7044;53.286;8.534;2023-05-07T13:15:26;14.30;99.90
13944;DHT22;7044;53.286;8.534;2023-05-07T13:17:53;14.30;99.90
13944;DHT22;7044;53.286;8.534;2023-05-07T13:20:20;14.30;99.90
13944;DHT22;7044;53.286;8.534;2023-05-07T13:22:47;14.30;99.90
13944;DHT22;7044;53.286;8.534;2023-05-07T13:25:14;14.30;99.90
13944;DHT22;7044;53.286;8.534;2023-05-07T13:27:41;14.30;99.90
13944;DHT22;7044;53.286;8.534;2023-05-07T13:30:08;14.30;99.90
13944;DHT22;7044;53.286;8.534;2023-05-07T13:32:36;14.40;99.90
13944;DHT22;7044;53.286;8.534;2023-05-07T13:35:03;14.30;99.90
13944;DHT22;7044;53.286;8.534;2023-05-07T13:37:30;14.40;99.90
13944;DHT22;7044;53.286;8.534;2023-05-07T13:39:57;14.40;99.90
13944;DHT22;7044;53.286;8.534;2023-05-07T13:42:24;14.40;99.90
13944;DHT22;7044;53.286;8.534;2023-05-07T13:44:50;14.50;99.90
13944;DHT22;7044;53.286;8.534;2023-05-07T13:47:17;14.50;99.90
13944;DHT22;7044;53.286;8.534;2023-05-07T13:49:45;14.50;99.90
13944;DHT22;7044;53.286;8.534;2023-05-07T13:52:15;14.50;99.90
13944;DHT22;7044;53.286;8.534;2023-05-07T13:54:41;14.60;99.90
13944;DHT22;7044;53.286;8.534;2023-05-07T13:57:08;14.60;99.90
13944;DHT22;7044;53.286;8.534;2023-05-07T13:59:35;14.60;99.90
13944;DHT22;7044;53.286;8.534;2023-05-07T14:02:02;14.60;99.90
13944;DHT22;7044;53.286;8.534;2023-05-07T14:04:30;14.60;99.90
13944;DHT22;7044;53.286;8.534;2023-05-07T14:06:58;14.70;99.90
13944;DHT22;7044;53.286;8.534;2023-05-07T14:09:25;14.80;99.90
13944;DHT22;7044;53.286;8.534;2023-05-07T14:11:52;14.80;99.90
13944;DHT22;7044;53.286;8.534;2023-05-07T14:14:19;15.00;99.90
13944;DHT22;7044;53.286;8.534;2023-05-07T14:16:46;15.00;99.90
13944;DHT22;7044;53.286;8.534;2023-05-07T14:19:13;15.10;99.90
13944;DHT22;7044;53.286;8.534;2023-05-07T14:21:40;15.10;99.90
13944;DHT22;7044;53.286;8.534;2023-05-07T14:24:09;15.10;99.90
13944;DHT22;7044;53.286;8.534;2023-05-07T14:26:35;15.10;99.90
13944;DHT22;7044;53.286;8.534;2023-05-07T14:29:02;15.10;99.90
13944;DHT22;7044;53.286;8.534;2023-05-07T14:31:29;15.00;99.90
13944;DHT22;7044;53.286;8.534;2023-05-07T14:33:56;15.00;99.90
13944;DHT22;7044;53.286;8.534;2023-05-07T14:36:24;15.00;99.90
13944;DHT22;7044;53.286;8.534;2023-05-07T14:38:53;14.90;99.90
13944;DHT22;7044;53.286;8.534;2023-05-07T14:41:21;14.80;99.90
13944;DHT22;7044;53.286;8.534;2023-05-07T14:43:48;14.80;99.90
13944;DHT22;7044;53.286;8.534;2023-05-07T14:46:16;14.80;99.90
13944;DHT22;7044;53.286;8.534;2023-05-07T14:48:44;14.80;99.90
13944;DHT22;7044;53.286;8.534;2023-05-07T14:51:12;14.80;99.90
13944;DHT22;7044;53.286;8.534;2023-05-07T14:53:40;14.80;99.90
13944;DHT22;7044;53.286;8.534;2023-05-07T14:56:07;14.80;99.90
13944;DHT22;7044;53.286;8.534;2023-05-07T14:58:35;14.80;99.90
13944;DHT22;7044;53.286;8.534;2023-05-07T15:01:03;14.90;99.90
13944;DHT22;7044;53.286;8.534;2023-05-07T15:03:29;14.90;99.90
13944;DHT22;7044;53.286;8.534;2023-05-07T15:05:56;14.90;99.90
13944;DHT22;7044;53.286;8.534;2023-05-07T15:08:23;15.10;99.90
13944;DHT22;7044;53.286;8.534;2023-05-07T15:10:50;15.10;99.90
13944;DHT22;7044;53.286;8.534;2023-05-07T15:13:17;15.10;99.90
13944;DHT22;7044;53.286;8.534;2023-05-07T15:15:45;15.20;99.90
13944;DHT22;7044;53.286;8.534;2023-05-07T15:18:12;15.30;99.90
13944;DHT22;7044;53.286;8.534;2023-05-07T15:20:39;15.40;99.90
13944;DHT22;7044;53.286;8.534;2023-05-07T15:23:06;15.30;99.90
13944;DHT22;7044;53.286;8.534;2023-05-07T15:25:35;15.40;99.90
13944;DHT22;7044;53.286;8.534;2023-05-07T15:28:02;15.50;99.90
13944;DHT22;7044;53.286;8.534;2023-05-07T15:30:29;15.50;99.90
13944;DHT22;7044;53.286;8.534;2023-05-07T15:32:58;15.40;99.90
13944;DHT22;7044;53.286;8.534;2023-05-07T15:35:26;15.50;99.90
13944;DHT22;7044;53.286;8.534;2023-05-07T15:37:52;15.50;99.90
13944;DHT22;7044;53.286;8.534;2023-05-07T15:40:19;15.50;99.90
13944;DHT22;7044;53.286;8.534;2023-05-07T15:42:46;15.50;99.90
13944;DHT22;7044;53.286;8.534;2023-05-07T15:45:13;15.50;99.90
13944;DHT22;7044;53.286;8.534;2023-05-07T15:47:40;15.60;99.90
13944;DHT22;7044;53.286;8.534;2023-05-07T15:50:09;15.50;99.90
13944;DHT22;7044;53.286;8.534;2023-05-07T15:52:37;15.60;99.90